createdAt,value
2022-09-26T00:03:10.956Z,96.66
2022-09-26T00:05:39.774Z,97.12
2022-09-26T00:10:57.570Z,97.66
2022-09-26T00:13:25.608Z,97.62
2022-09-26T00:15:56.791Z,97.66
2022-09-26T00:18:26.276Z,97.91
2022-09-26T00:20:54.413Z,97.99
2022-09-26T00:23:22.266Z,97.72
2022-09-26T00:25:52.907Z,97.85
2022-09-26T00:28:20.805Z,97.95
2022-09-26T00:30:48.758Z,98.00
2022-09-26T00:33:17.029Z,98.40
2022-09-26T00:35:51.188Z,98.32
2022-09-26T00:38:19.643Z,98.33
2022-09-26T00:40:47.996Z,97.92
2022-09-26T00:43:34.727Z,97.85
2022-09-26T00:46:10.844Z,98.20
2022-09-26T00:48:41.441Z,98.01
2022-09-26T00:51:09.563Z,98.35
2022-09-26T00:53:41.412Z,98.29
2022-09-26T00:56:15.486Z,98.44
2022-09-26T00:58:51.459Z,98.16
2022-09-26T01:01:20.781Z,98.16
2022-09-26T01:03:51.285Z,97.99
2022-09-26T01:06:29.443Z,98.24
2022-09-26T01:11:44.675Z,98.30
2022-09-26T01:14:14.377Z,98.37
2022-09-26T01:16:47.214Z,99.18
2022-09-26T01:19:21.355Z,98.74
2022-09-26T01:22:11.593Z,98.94
2022-09-26T01:28:07.770Z,98.68
2022-09-26T01:30:45.610Z,98.70
2022-09-26T01:33:41.725Z,98.46
2022-09-26T01:36:25.517Z,98.34
2022-09-26T01:39:04.349Z,98.00
2022-09-26T01:41:51.775Z,98.13
2022-09-26T01:44:32.321Z,98.30
2022-09-26T01:49:57.674Z,98.68
2022-09-26T01:52:34.242Z,99.65
2022-09-26T01:55:23.578Z,100.00
2022-09-26T01:57:56.309Z,99.96
2022-09-26T02:00:32.796Z,100.00
2022-09-26T02:03:04.994Z,100.00
2022-09-26T02:05:36.634Z,100.00
2022-09-26T02:08:11.268Z,99.77
2022-09-26T02:10:45.949Z,99.63
2022-09-26T02:13:17.734Z,99.20
2022-09-26T02:18:21.315Z,98.79
2022-09-26T02:20:52.896Z,98.75
2022-09-26T02:23:20.874Z,98.54
2022-09-26T02:25:49.490Z,98.12
2022-09-26T02:28:17.437Z,97.99
2022-09-26T02:30:47.424Z,97.35
2022-09-26T02:33:31.642Z,97.74
2022-09-26T02:35:59.571Z,97.37
2022-09-26T02:38:30.136Z,96.87
2022-09-26T02:41:05.726Z,96.58
2022-09-26T02:46:39.821Z,96.18
2022-09-26T02:49:27.233Z,96.46
2022-09-26T02:54:47.480Z,96.68
2022-09-26T02:57:29.632Z,97.30
2022-09-26T03:00:16.187Z,97.25
2022-09-26T03:02:51.890Z,98.05
2022-09-26T03:05:22.549Z,98.52
2022-09-26T03:07:56.523Z,98.39
2022-09-26T03:13:09.694Z,99.17
2022-09-26T03:18:26.395Z,99.82
2022-09-26T03:20:54.931Z,100.00
2022-09-26T03:26:15.031Z,100.00
2022-09-26T03:28:44.557Z,100.00
2022-09-26T03:31:12.785Z,99.88
2022-09-26T03:33:41.006Z,100.00
2022-09-26T03:36:10.231Z,100.00
2022-09-26T03:38:38.759Z,100.00
2022-09-26T03:43:55.151Z,100.00
2022-09-26T03:46:24.455Z,100.00
2022-09-26T03:48:52.616Z,100.00
2022-09-26T03:51:21.071Z,100.00
2022-09-26T03:53:48.945Z,100.00
2022-09-26T03:56:19.226Z,100.00
2022-09-26T03:58:49.093Z,100.00
2022-09-26T04:01:20.530Z,100.00
2022-09-26T04:03:51.134Z,100.00
2022-09-26T04:09:03.537Z,100.00
2022-09-26T04:11:31.730Z,100.00
2022-09-26T04:13:59.614Z,100.00
2022-09-26T04:16:29.657Z,100.00
2022-09-26T04:18:58.388Z,100.00
2022-09-26T04:21:27.497Z,100.00
2022-09-26T04:26:38.098Z,100.00
2022-09-26T04:29:06.042Z,100.00
2022-09-26T04:31:51.534Z,100.00
2022-09-26T04:34:24.831Z,100.00
2022-09-26T04:36:55.159Z,100.00
2022-09-26T04:39:23.349Z,100.00
2022-09-26T04:41:52.436Z,100.00
2022-09-26T04:44:20.442Z,100.00
2022-09-26T04:46:48.441Z,100.00
2022-09-26T04:49:17.714Z,100.00
2022-09-26T04:51:45.746Z,100.00
2022-09-26T04:54:13.736Z,100.00
2022-09-26T04:59:23.971Z,100.00
2022-09-26T05:01:54.996Z,100.00
2022-09-26T05:04:27.650Z,100.00
2022-09-26T05:06:57.623Z,100.00
2022-09-26T05:09:36.106Z,100.00
2022-09-26T05:12:04.372Z,100.00
2022-09-26T05:14:35.452Z,100.00
2022-09-26T05:17:03.806Z,100.00
2022-09-26T05:19:33.910Z,100.00
2022-09-26T05:22:01.878Z,100.00
2022-09-26T05:24:55.170Z,100.00
2022-09-26T05:27:24.357Z,100.00
2022-09-26T05:29:56.434Z,100.00
2022-09-26T05:32:24.467Z,100.00
2022-09-26T05:34:55.359Z,100.00
2022-09-26T05:37:23.306Z,100.00
2022-09-26T05:40:08.882Z,100.00
2022-09-26T05:42:45.523Z,100.00
2022-09-26T05:45:13.859Z,100.00
2022-09-26T05:47:42.237Z,100.00
2022-09-26T05:52:50.929Z,100.00
2022-09-26T05:55:18.790Z,100.00
2022-09-26T05:57:54.130Z,100.00
2022-09-26T06:00:31.663Z,100.00
2022-09-26T06:03:02.945Z,100.00
2022-09-26T06:05:45.437Z,100.00
2022-09-26T06:08:15.828Z,100.00
2022-09-26T06:10:43.799Z,100.00
2022-09-26T06:13:23.454Z,99.31
2022-09-26T06:18:32.124Z,98.79
2022-09-26T06:21:02.580Z,98.80
2022-09-26T06:23:34.207Z,98.72
2022-09-26T06:26:02.336Z,98.79
2022-09-26T06:28:31.362Z,98.57
2022-09-26T06:30:59.468Z,98.85
2022-09-26T06:33:32.599Z,98.71
2022-09-26T06:36:02.082Z,98.75
2022-09-26T06:38:30.439Z,98.74
2022-09-26T06:40:59.933Z,98.22
2022-09-26T06:43:28.109Z,98.41
2022-09-26T06:45:56.097Z,98.34
2022-09-26T06:48:25.102Z,97.38
2022-09-26T06:51:04.292Z,96.73
2022-09-26T06:53:32.523Z,96.36
2022-09-26T06:56:02.227Z,95.20
2022-09-26T06:58:34.518Z,94.56
2022-09-26T07:01:03.156Z,94.03
2022-09-26T07:03:31.761Z,92.83
2022-09-26T07:06:00.690Z,91.38
2022-09-26T07:09:01.506Z,90.61
2022-09-26T07:11:42.100Z,87.31
2022-09-26T07:17:03.751Z,83.45
2022-09-26T07:19:31.797Z,82.30
2022-09-26T07:21:59.801Z,81.61
2022-09-26T07:24:32.143Z,79.01
2022-09-26T07:27:02.180Z,79.41
2022-09-26T07:29:30.473Z,79.62
2022-09-26T07:32:00.144Z,79.22
2022-09-26T07:34:28.374Z,77.17
2022-09-26T07:36:56.852Z,76.66
2022-09-26T07:39:24.964Z,74.54
2022-09-26T07:47:39.666Z,65.77
2022-09-26T07:50:15.263Z,64.49
2022-09-26T07:52:44.205Z,60.82
2022-09-26T07:55:15.336Z,61.66
2022-09-26T07:57:43.310Z,61.01
2022-09-26T08:00:17.388Z,60.51
2022-09-26T08:02:47.003Z,59.80
2022-09-26T08:05:26.563Z,60.36
2022-09-26T08:07:54.528Z,60.44
2022-09-26T08:10:24.457Z,60.17
2022-09-26T08:12:52.384Z,60.59
2022-09-26T08:15:21.885Z,59.69
2022-09-26T08:17:49.844Z,60.29
2022-09-26T08:20:17.926Z,59.52
2022-09-26T08:22:45.782Z,60.49
2022-09-26T08:25:13.744Z,59.67
2022-09-26T08:27:43.590Z,59.88
2022-09-26T08:30:12.261Z,59.27
2022-09-26T08:32:41.872Z,60.10
2022-09-26T08:35:12.233Z,59.70
2022-09-26T08:37:40.547Z,59.65
2022-09-26T08:40:09.300Z,61.54
2022-09-26T08:42:52.183Z,61.48
2022-09-26T08:45:47.906Z,62.67
2022-09-26T08:48:33.187Z,63.20
2022-09-26T08:51:12.168Z,63.01
2022-09-26T08:53:47.359Z,64.48
2022-09-26T08:56:22.545Z,63.82
2022-09-26T08:58:53.694Z,63.97
2022-09-26T09:01:27.789Z,64.27
2022-09-26T09:04:04.675Z,63.28
2022-09-26T09:06:33.879Z,58.37
2022-09-26T09:09:02.004Z,57.94
2022-09-26T09:11:51.113Z,61.45
2022-09-26T09:15:13.806Z,62.03
2022-09-26T09:17:48.410Z,61.65
2022-09-26T09:20:27.281Z,61.12
2022-09-26T09:23:20.299Z,60.95
2022-09-26T09:25:54.698Z,61.10
2022-09-26T09:28:35.802Z,62.25
2022-09-26T09:31:07.869Z,61.92
2022-09-26T09:33:41.493Z,61.78
2022-09-26T09:36:15.360Z,63.15
2022-09-26T09:38:46.934Z,62.47
2022-09-26T09:41:18.305Z,63.29
2022-09-26T09:43:49.947Z,63.74
2022-09-26T09:46:23.183Z,64.25
2022-09-26T09:48:57.434Z,64.00
2022-09-26T09:51:38.335Z,64.12
2022-09-26T09:54:36.373Z,64.96
2022-09-26T09:57:36.703Z,63.48
2022-09-26T10:00:12.747Z,64.25
2022-09-26T10:02:49.107Z,63.22
2022-09-26T10:05:24.986Z,63.76
2022-09-26T10:07:59.240Z,63.70
2022-09-26T10:10:37.557Z,62.95
2022-09-26T10:13:06.769Z,61.97
2022-09-26T10:15:36.908Z,63.51
2022-09-26T10:18:23.962Z,61.54
2022-09-26T10:20:55.701Z,61.58
2022-09-26T10:23:31.373Z,61.60
2022-09-26T10:26:03.658Z,59.95
2022-09-26T10:28:35.811Z,58.77
2022-09-26T10:31:08.522Z,56.18
2022-09-26T10:33:39.042Z,56.40
2022-09-26T10:36:12.725Z,56.09
2022-09-26T10:39:10.730Z,56.96
2022-09-26T10:41:43.580Z,57.82
2022-09-26T10:44:23.921Z,56.52
2022-09-26T10:46:56.523Z,57.56
2022-09-26T10:49:26.446Z,56.95
2022-09-26T10:52:02.700Z,56.87
2022-09-26T10:54:41.849Z,55.51
2022-09-26T10:57:21.110Z,54.51
2022-09-26T10:59:50.198Z,53.90
2022-09-26T11:02:22.932Z,53.86
2022-09-26T11:05:13.891Z,53.79
2022-09-26T11:07:44.689Z,51.78
2022-09-26T11:10:18.192Z,51.81
2022-09-26T11:13:03.551Z,54.24
2022-09-26T11:15:31.877Z,54.43
2022-09-26T11:17:59.896Z,54.83
2022-09-26T11:20:39.349Z,55.04
2022-09-26T11:23:15.202Z,54.60
2022-09-26T11:37:32.729Z,52.78
2022-09-26T11:40:18.847Z,51.15
2022-09-26T11:43:04.450Z,49.81
2022-09-26T11:45:47.655Z,48.86
2022-09-26T11:48:28.781Z,48.13
2022-09-26T11:51:03.288Z,48.46
2022-09-26T11:53:46.567Z,48.51
2022-09-26T11:56:35.922Z,48.35
2022-09-26T11:59:18.891Z,49.59
2022-09-26T12:01:56.035Z,50.15
2022-09-26T12:04:39.945Z,48.95
2022-09-26T12:07:19.423Z,50.13
2022-09-26T12:10:15.062Z,50.69
2022-09-26T12:13:01.301Z,51.71
2022-09-26T12:15:37.971Z,52.32
2022-09-26T12:18:15.877Z,53.18
2022-09-26T12:20:52.784Z,52.64
2022-09-26T12:23:29.764Z,52.77
2022-09-26T12:26:09.763Z,54.68
2022-09-26T12:28:50.275Z,56.49
2022-09-26T12:31:31.860Z,59.18
2022-09-26T12:34:27.615Z,60.01
2022-09-26T12:37:09.823Z,60.07
2022-09-26T12:40:05.508Z,60.30
2022-09-26T12:42:54.682Z,62.28
2022-09-26T12:45:43.760Z,64.99
2022-09-26T12:48:35.435Z,67.12
2022-09-26T12:51:20.020Z,68.69
2022-09-26T12:54:25.602Z,69.66
2022-09-26T12:56:59.886Z,70.94
2022-09-26T12:59:45.563Z,71.18
2022-09-26T13:02:33.679Z,72.54
2022-09-26T13:05:37.976Z,71.75
2022-09-26T13:08:13.357Z,72.14
2022-09-26T13:10:56.004Z,71.97
2022-09-26T13:14:10.681Z,72.14
2022-09-26T13:16:51.037Z,70.87
2022-09-26T13:19:28.313Z,70.73
2022-09-26T13:22:02.289Z,71.04
2022-09-26T13:24:41.096Z,70.60
2022-09-26T13:27:17.729Z,70.97
2022-09-26T13:29:52.038Z,70.71
2022-09-26T13:32:25.677Z,72.02
2022-09-26T13:35:00.879Z,70.35
2022-09-26T13:37:47.816Z,68.29
2022-09-26T13:40:34.099Z,68.51
2022-09-26T13:43:13.134Z,67.85
2022-09-26T13:45:55.310Z,67.54
2022-09-26T13:48:38.485Z,67.44
2022-09-26T13:51:18.441Z,66.16
2022-09-26T13:53:59.997Z,65.07
2022-09-26T13:56:44.149Z,65.46
2022-09-26T13:59:51.460Z,65.82
2022-09-26T14:02:26.715Z,65.60
2022-09-26T14:04:55.277Z,65.79
2022-09-26T14:08:04.388Z,66.16
2022-09-26T14:10:38.839Z,65.60
2022-09-26T14:13:19.121Z,67.27
2022-09-26T14:15:58.501Z,67.99
2022-09-26T14:18:48.262Z,66.72
2022-09-26T14:21:29.070Z,67.44
2022-09-26T14:24:29.325Z,66.52
2022-09-26T14:27:42.245Z,65.98
2022-09-26T14:30:27.859Z,64.31
2022-09-26T14:33:02.168Z,63.42
2022-09-26T14:35:32.584Z,65.18
2022-09-26T14:38:02.988Z,65.21
2022-09-26T14:40:33.699Z,66.02
2022-09-26T14:43:12.911Z,66.11
2022-09-26T14:45:52.844Z,66.27
2022-09-26T14:48:30.978Z,66.38
2022-09-26T14:51:03.464Z,66.43
2022-09-26T14:53:38.727Z,66.71
2022-09-26T14:56:10.900Z,66.57
2022-09-26T14:58:53.997Z,67.01
2022-09-26T15:01:26.862Z,65.87
2022-09-26T15:03:58.611Z,67.41
2022-09-26T15:06:28.695Z,67.51
2022-09-26T15:08:59.253Z,67.93
2022-09-26T15:11:37.320Z,68.03
2022-09-26T15:14:17.770Z,68.09
2022-09-26T15:16:49.601Z,67.85
2022-09-26T15:19:21.437Z,68.35
2022-09-26T15:21:55.774Z,68.32
2022-09-26T15:24:26.694Z,68.35
2022-09-26T15:26:56.695Z,68.94
2022-09-26T15:29:26.354Z,68.87
2022-09-26T15:31:55.849Z,69.33
2022-09-26T15:34:30.575Z,69.17
2022-09-26T15:37:00.098Z,70.47
2022-09-26T15:39:38.103Z,70.28
2022-09-26T15:42:48.248Z,70.34
2022-09-26T15:45:29.796Z,70.76
2022-09-26T15:47:59.502Z,70.91
2022-09-26T15:50:41.393Z,70.67
2022-09-26T15:53:20.684Z,71.25
2022-09-26T15:55:53.249Z,71.25
2022-09-26T15:58:27.133Z,71.20
2022-09-26T16:00:56.636Z,71.41
2022-09-26T16:03:46.036Z,71.44
2022-09-26T16:06:27.114Z,71.32
2022-09-26T16:09:00.584Z,71.83
2022-09-26T16:11:29.644Z,71.77
2022-09-26T16:13:58.182Z,72.34
2022-09-26T16:16:32.082Z,72.91
2022-09-26T16:19:03.258Z,72.91
2022-09-26T16:21:36.380Z,72.96
2022-09-26T16:24:27.971Z,73.15
2022-09-26T16:26:56.549Z,72.74
2022-09-26T16:29:32.898Z,72.21
2022-09-26T16:32:03.175Z,72.82
2022-09-26T16:34:32.028Z,72.67
2022-09-26T16:37:00.043Z,73.17
2022-09-26T16:39:29.840Z,73.15
2022-09-26T16:42:02.772Z,73.35
2022-09-26T16:44:35.931Z,73.04
2022-09-26T16:47:07.627Z,73.41
2022-09-26T16:49:47.423Z,73.24
2022-09-26T16:52:30.766Z,73.33
2022-09-26T16:55:00.542Z,73.84
2022-09-26T16:57:30.872Z,73.42
2022-09-26T17:00:21.005Z,73.88
2022-09-26T17:02:50.363Z,74.19
2022-09-26T17:05:20.586Z,74.57
2022-09-26T17:07:50.769Z,75.28
2022-09-26T17:10:20.815Z,75.51
2022-09-26T17:12:50.646Z,75.59
2022-09-26T17:15:23.069Z,75.76
2022-09-26T17:17:53.745Z,75.97
2022-09-26T17:20:22.605Z,76.76
2022-09-26T17:22:50.658Z,76.51
2022-09-26T17:25:19.096Z,76.56
2022-09-26T17:27:57.681Z,76.80
2022-09-26T17:30:25.629Z,76.61
2022-09-26T17:32:55.223Z,78.52
2022-09-26T17:35:26.349Z,79.10
2022-09-26T17:37:54.669Z,79.86
2022-09-26T17:40:25.098Z,79.97
2022-09-26T17:42:55.369Z,80.32
2022-09-26T17:45:28.572Z,80.73
2022-09-26T17:47:59.330Z,81.91
2022-09-26T17:50:29.910Z,83.19
2022-09-26T17:52:58.966Z,83.99
2022-09-26T17:55:27.897Z,85.35
2022-09-26T17:57:56.865Z,85.92
2022-09-26T18:00:25.272Z,86.98
2022-09-26T18:02:59.711Z,87.76
2022-09-26T18:05:32.931Z,88.76
2022-09-26T18:08:05.348Z,89.12
2022-09-26T18:10:35.791Z,90.33
2022-09-26T18:13:12.778Z,91.79
2022-09-26T18:15:41.612Z,93.75
2022-09-26T18:18:19.947Z,94.77
2022-09-26T18:20:49.441Z,96.20
2022-09-26T18:23:20.991Z,95.97
2022-09-26T18:25:50.999Z,93.09
2022-09-26T18:28:22.243Z,93.00
2022-09-26T18:30:57.809Z,93.59
2022-09-26T18:33:28.906Z,93.06
2022-09-26T18:35:59.042Z,93.05
2022-09-26T18:38:26.921Z,92.88
2022-09-26T18:40:58.457Z,92.67
2022-09-26T18:43:29.495Z,92.42
2022-09-26T18:45:57.698Z,91.67
2022-09-26T18:48:27.757Z,91.62
2022-09-26T18:50:57.374Z,91.06
2022-09-26T18:53:29.553Z,90.10
2022-09-26T18:56:14.625Z,89.79
2022-09-26T18:58:42.473Z,89.53
2022-09-26T19:01:16.855Z,89.26
2022-09-26T19:03:48.281Z,88.86
2022-09-26T19:06:19.435Z,87.71
2022-09-26T19:08:50.938Z,89.38
2022-09-26T19:11:20.873Z,86.63
2022-09-26T19:13:51.074Z,87.22
2022-09-26T19:16:20.097Z,87.11
2022-09-26T19:18:48.326Z,86.97
2022-09-26T19:21:29.461Z,86.35
2022-09-26T19:24:01.684Z,84.92
2022-09-26T19:26:37.009Z,85.03
2022-09-26T19:29:09.953Z,85.89
2022-09-26T19:31:40.199Z,85.54
2022-09-26T19:34:08.167Z,85.45
2022-09-26T19:36:36.066Z,85.62
2022-09-26T19:39:10.819Z,84.83
2022-09-26T19:41:38.605Z,86.02
2022-09-26T19:44:07.358Z,84.77
2022-09-26T19:46:37.105Z,84.56
2022-09-26T19:49:06.376Z,84.82
2022-09-26T19:51:39.714Z,83.13
2022-09-26T19:54:15.650Z,82.52
2022-09-26T19:56:44.175Z,82.32
2022-09-26T19:59:12.819Z,83.17
2022-09-26T20:01:42.723Z,83.31
2022-09-26T20:04:15.738Z,83.29
2022-09-26T20:06:43.884Z,83.65
2022-09-26T20:09:18.798Z,82.61
2022-09-26T20:11:46.825Z,83.67
2022-09-26T20:14:27.076Z,82.53
2022-09-26T20:17:02.068Z,83.25
2022-09-26T20:19:36.470Z,83.01
2022-09-26T20:22:07.465Z,83.76
2022-09-26T20:24:39.517Z,83.71
2022-09-26T20:27:09.421Z,84.02
2022-09-26T20:29:51.411Z,84.08
2022-09-26T20:32:19.257Z,82.80
2022-09-26T20:34:47.459Z,83.26
2022-09-26T20:37:15.776Z,82.88
2022-09-26T20:39:46.966Z,83.00
2022-09-26T20:42:18.559Z,83.15
2022-09-26T20:44:49.730Z,83.37
2022-09-26T20:47:20.091Z,82.88
2022-09-26T20:49:51.496Z,82.47
2022-09-26T20:52:22.697Z,83.21
2022-09-26T20:54:53.234Z,83.27
2022-09-26T20:57:22.215Z,83.86
2022-09-26T20:59:50.741Z,84.24
2022-09-26T21:02:26.645Z,83.60
2022-09-26T21:04:55.486Z,84.09
2022-09-26T21:07:24.145Z,83.74
2022-09-26T21:09:53.403Z,84.58
2022-09-26T21:12:21.241Z,84.33
2022-09-26T21:14:49.112Z,84.77
2022-09-26T21:17:19.651Z,84.95
2022-09-26T21:19:47.823Z,85.27
2022-09-26T21:22:15.778Z,86.36
2022-09-26T21:24:49.127Z,87.05
2022-09-26T21:27:18.509Z,87.25
2022-09-26T21:29:46.439Z,87.99
2022-09-26T21:32:17.835Z,89.05
2022-09-26T21:34:54.301Z,90.19
2022-09-26T21:37:22.307Z,89.85
2022-09-26T21:39:50.299Z,91.30
2022-09-26T21:42:19.647Z,91.97
2022-09-26T21:44:52.072Z,92.54
2022-09-26T21:47:20.366Z,93.07
2022-09-26T21:49:48.963Z,93.88
2022-09-26T21:52:24.313Z,94.28
2022-09-26T21:54:52.787Z,95.04
2022-09-26T21:57:24.058Z,96.89
2022-09-26T21:59:53.656Z,96.66
2022-09-26T22:02:21.610Z,97.53
2022-09-26T22:04:49.732Z,97.87
2022-09-26T22:07:17.686Z,98.13
2022-09-26T22:09:45.574Z,98.86
2022-09-26T22:12:13.543Z,99.68
2022-09-26T22:14:42.740Z,100.00
2022-09-26T22:17:10.613Z,100.00
2022-09-26T22:19:38.514Z,100.00
2022-09-26T22:22:06.566Z,100.00
2022-09-26T22:24:35.421Z,100.00
2022-09-26T22:27:03.276Z,100.00
2022-09-26T22:29:31.197Z,100.00
2022-09-26T22:32:00.582Z,100.00
2022-09-26T22:34:28.448Z,100.00
2022-09-26T22:36:56.336Z,100.00
2022-09-26T22:39:24.122Z,100.00
2022-09-26T22:41:52.797Z,100.00
2022-09-26T22:44:20.777Z,100.00
2022-09-26T22:46:48.577Z,100.00
2022-09-26T22:49:17.766Z,100.00
2022-09-26T22:51:45.537Z,100.00
2022-09-26T22:54:13.359Z,100.00
2022-09-26T22:56:41.187Z,100.00
2022-09-26T22:59:09.063Z,100.00
2022-09-26T23:01:37.143Z,100.00
2022-09-26T23:04:05.227Z,100.00
2022-09-26T23:06:34.472Z,100.00
2022-09-26T23:09:02.766Z,100.00
2022-09-26T23:11:31.018Z,100.00
2022-09-26T23:13:58.798Z,100.00
2022-09-26T23:16:28.714Z,100.00
2022-09-26T23:18:57.325Z,100.00
2022-09-26T23:21:26.948Z,100.00
2022-09-26T23:23:58.186Z,100.00
2022-09-26T23:26:27.853Z,100.00
2022-09-26T23:28:57.400Z,100.00
2022-09-26T23:31:26.188Z,100.00
2022-09-26T23:33:54.420Z,100.00
2022-09-26T23:36:22.569Z,100.00
2022-09-26T23:38:50.993Z,100.00
2022-09-26T23:41:20.223Z,100.00
2022-09-26T23:43:48.091Z,100.00
2022-09-26T23:46:16.318Z,100.00
2022-09-26T23:48:44.607Z,100.00
2022-09-26T23:51:12.432Z,100.00
2022-09-26T23:53:40.259Z,100.00
2022-09-26T23:56:10.219Z,100.00
2022-09-26T23:58:39.564Z,100.00
